createdAt,value
2023-05-25T00:01:25.180Z,22.93
2023-05-25T00:03:55.491Z,22.90
2023-05-25T00:06:23.709Z,22.92
2023-05-25T00:08:55.119Z,22.89
2023-05-25T00:11:23.577Z,22.89
2023-05-25T00:13:52.204Z,22.86
2023-05-25T00:16:20.653Z,22.81
2023-05-25T00:18:48.860Z,22.79
2023-05-25T00:21:16.391Z,22.81
2023-05-25T00:23:48.200Z,22.73
2023-05-25T00:26:16.305Z,22.70
2023-05-25T00:28:44.667Z,22.68
2023-05-25T00:31:13.042Z,22.64
2023-05-25T00:33:41.231Z,22.63
2023-05-25T00:36:09.636Z,22.64
2023-05-25T00:38:37.649Z,22.57
2023-05-25T00:41:06.216Z,22.53
2023-05-25T00:43:34.585Z,22.56
2023-05-25T00:46:03.223Z,22.57
2023-05-25T00:48:30.915Z,22.60
2023-05-25T00:51:00.062Z,22.67
2023-05-25T00:53:27.967Z,22.65
2023-05-25T00:55:58.107Z,22.63
2023-05-25T00:58:28.137Z,22.46
2023-05-25T01:00:56.306Z,22.11
2023-05-25T01:03:28.179Z,21.81
2023-05-25T01:05:56.147Z,21.25
2023-05-25T01:08:23.787Z,20.97
2023-05-25T01:10:51.823Z,20.85
2023-05-25T01:13:19.624Z,20.70
2023-05-25T01:15:47.277Z,20.58
2023-05-25T01:18:18.280Z,20.43
2023-05-25T01:21:20.473Z,20.35
2023-05-25T01:23:52.670Z,20.29
2023-05-25T01:26:19.849Z,20.06
2023-05-25T01:28:57.210Z,20.07
2023-05-25T01:31:24.828Z,20.15
2023-05-25T01:33:53.421Z,20.23
2023-05-25T01:36:21.231Z,20.31
2023-05-25T01:38:49.405Z,20.51
2023-05-25T01:41:17.221Z,20.62
2023-05-25T01:43:45.421Z,20.61
2023-05-25T01:46:36.594Z,20.76
2023-05-25T01:49:21.334Z,20.75
2023-05-25T01:52:04.251Z,20.87
2023-05-25T01:54:38.660Z,20.88
2023-05-25T01:57:09.368Z,20.91
2023-05-25T01:59:36.507Z,21.07
2023-05-25T02:02:06.804Z,21.01
2023-05-25T02:04:35.020Z,20.99
2023-05-25T02:07:04.977Z,21.04
2023-05-25T02:09:32.882Z,21.06
2023-05-25T02:12:01.242Z,21.08
2023-05-25T02:14:28.945Z,21.05
2023-05-25T02:16:57.790Z,21.04
2023-05-25T02:19:25.708Z,20.98
2023-05-25T02:21:53.614Z,21.01
2023-05-25T02:24:23.683Z,21.09
2023-05-25T02:26:51.002Z,21.12
2023-05-25T02:29:19.595Z,21.24
2023-05-25T02:31:47.798Z,21.12
2023-05-25T02:34:15.697Z,21.05
2023-05-25T02:36:45.162Z,21.10
2023-05-25T02:39:12.834Z,21.16
2023-05-25T02:41:40.540Z,21.16
2023-05-25T02:44:08.368Z,20.98
2023-05-25T02:46:36.472Z,21.07
2023-05-25T02:49:04.201Z,21.03
2023-05-25T02:51:32.512Z,21.17
2023-05-25T02:54:01.026Z,21.10
2023-05-25T02:56:28.840Z,21.06
2023-05-25T02:58:57.159Z,21.14
2023-05-25T03:01:25.627Z,21.19
2023-05-25T03:03:53.644Z,21.18
2023-05-25T03:06:22.984Z,21.23
2023-05-25T03:08:51.122Z,21.22
2023-05-25T03:11:19.269Z,21.24
2023-05-25T03:13:46.852Z,21.25
2023-05-25T03:16:14.616Z,21.19
2023-05-25T03:18:43.005Z,21.13
2023-05-25T03:21:10.977Z,21.16
2023-05-25T03:23:39.515Z,21.12
2023-05-25T03:26:07.732Z,21.16
2023-05-25T03:28:35.550Z,21.21
2023-05-25T03:31:03.599Z,21.24
2023-05-25T03:33:31.279Z,21.31
2023-05-25T03:35:59.421Z,21.29
2023-05-25T03:38:27.528Z,21.35
2023-05-25T03:40:55.029Z,21.39
2023-05-25T03:43:23.087Z,21.25
2023-05-25T03:45:51.261Z,21.21
2023-05-25T03:48:19.468Z,21.22
2023-05-25T03:50:47.014Z,21.25
2023-05-25T03:53:14.906Z,21.30
2023-05-25T03:55:43.384Z,21.36
2023-05-25T03:58:11.183Z,21.33
2023-05-25T04:00:39.852Z,21.35
2023-05-25T04:03:11.024Z,21.30
2023-05-25T04:05:38.797Z,21.29
2023-05-25T04:08:08.695Z,21.31
2023-05-25T04:10:36.477Z,21.39
2023-05-25T04:13:04.562Z,21.37
2023-05-25T04:15:34.686Z,21.47
2023-05-25T04:18:03.608Z,21.42
2023-05-25T04:20:31.947Z,21.40
2023-05-25T04:23:00.147Z,21.45
2023-05-25T04:25:29.648Z,21.48
2023-05-25T04:27:58.128Z,21.41
2023-05-25T04:30:26.205Z,21.50
2023-05-25T04:32:54.967Z,21.60
2023-05-25T04:35:23.662Z,21.74
2023-05-25T04:37:51.752Z,21.59
2023-05-25T04:40:21.542Z,21.72
2023-05-25T04:42:49.378Z,21.46
2023-05-25T04:45:18.020Z,21.52
2023-05-25T04:47:45.983Z,21.51
2023-05-25T04:50:13.428Z,21.48
2023-05-25T04:52:41.445Z,21.41
2023-05-25T04:55:10.385Z,21.46
2023-05-25T04:57:38.373Z,21.48
2023-05-25T05:00:11.035Z,21.58
2023-05-25T05:02:40.226Z,21.62
2023-05-25T05:05:09.448Z,21.71
2023-05-25T05:07:38.178Z,21.81
2023-05-25T05:10:08.873Z,21.84
2023-05-25T05:12:36.735Z,21.86
2023-05-25T05:15:05.818Z,21.82
2023-05-25T05:17:34.263Z,21.90
2023-05-25T05:20:02.687Z,21.95
2023-05-25T05:22:30.395Z,21.95
2023-05-25T05:24:58.677Z,21.94
2023-05-25T05:27:26.994Z,21.97
2023-05-25T05:29:54.969Z,22.07
2023-05-25T05:32:23.072Z,22.11
2023-05-25T05:34:50.583Z,22.11
2023-05-25T05:37:18.614Z,22.11
2023-05-25T05:39:46.234Z,22.08
2023-05-25T05:42:14.424Z,22.13
2023-05-25T05:44:42.137Z,22.14
2023-05-25T05:47:09.802Z,22.15
2023-05-25T05:49:39.379Z,22.24
2023-05-25T05:52:09.678Z,22.18
2023-05-25T05:54:37.866Z,22.01
2023-05-25T05:57:08.969Z,22.03
2023-05-25T05:59:37.175Z,22.00
2023-05-25T06:02:05.324Z,22.05
2023-05-25T06:04:33.434Z,22.05
2023-05-25T06:07:01.677Z,22.00
2023-05-25T06:09:29.753Z,22.04
2023-05-25T06:11:58.015Z,22.36
2023-05-25T06:14:28.274Z,22.43
2023-05-25T06:16:57.209Z,22.37
2023-05-25T06:19:25.297Z,22.42
2023-05-25T06:21:53.327Z,22.36
2023-05-25T06:24:20.970Z,22.34
2023-05-25T06:26:48.601Z,22.49
2023-05-25T06:29:17.229Z,22.48
2023-05-25T06:31:45.618Z,22.50
2023-05-25T06:34:13.388Z,22.43
2023-05-25T06:36:41.774Z,22.45
2023-05-25T06:39:09.716Z,22.32
2023-05-25T06:41:39.617Z,22.34
2023-05-25T06:44:08.198Z,22.36
2023-05-25T06:46:36.577Z,22.45
2023-05-25T06:49:04.500Z,22.48
2023-05-25T06:51:33.455Z,22.55
2023-05-25T06:54:01.668Z,22.68
2023-05-25T06:56:30.156Z,22.75
2023-05-25T06:58:58.202Z,22.89
2023-05-25T07:01:26.381Z,23.01
2023-05-25T07:03:54.384Z,23.11
2023-05-25T07:06:22.103Z,23.27
2023-05-25T07:08:50.108Z,23.47
2023-05-25T07:11:20.814Z,23.65
2023-05-25T07:13:48.682Z,23.88
2023-05-25T07:16:16.987Z,23.88
2023-05-25T07:18:45.253Z,23.79
2023-05-25T07:21:13.206Z,23.75
2023-05-25T07:23:41.358Z,23.65
2023-05-25T07:26:09.634Z,23.60
2023-05-25T07:28:37.900Z,23.64
2023-05-25T07:31:06.305Z,23.77
2023-05-25T07:33:34.027Z,23.94
2023-05-25T07:36:02.408Z,24.04
2023-05-25T07:38:30.249Z,24.22
2023-05-25T07:40:58.303Z,24.39
2023-05-25T07:43:26.497Z,24.41
2023-05-25T07:45:55.329Z,24.24
2023-05-25T07:48:23.372Z,24.19
2023-05-25T07:50:51.405Z,24.15
2023-05-25T07:53:20.231Z,24.11
2023-05-25T07:55:48.166Z,24.08
2023-05-25T07:58:16.449Z,24.12
2023-05-25T08:00:44.382Z,23.93
2023-05-25T08:03:12.410Z,23.90
2023-05-25T08:05:40.668Z,23.96
2023-05-25T08:08:08.408Z,24.04
2023-05-25T08:10:36.397Z,24.07
2023-05-25T08:13:06.194Z,24.00
2023-05-25T08:15:34.638Z,23.90
2023-05-25T08:18:04.556Z,23.94
2023-05-25T08:20:32.509Z,23.92
2023-05-25T08:23:01.948Z,23.90
2023-05-25T08:25:30.144Z,24.01
2023-05-25T08:27:58.488Z,23.87
2023-05-25T08:30:26.425Z,23.88
2023-05-25T08:32:54.182Z,23.89
2023-05-25T08:35:22.356Z,23.88
2023-05-25T08:37:50.706Z,23.81
2023-05-25T08:40:18.456Z,23.86
2023-05-25T08:42:46.647Z,23.86
2023-05-25T08:45:30.395Z,23.89
2023-05-25T08:48:01.217Z,24.00
2023-05-25T08:50:29.319Z,23.94
2023-05-25T08:52:56.560Z,23.99
2023-05-25T08:55:24.610Z,24.14
2023-05-25T08:58:28.721Z,24.24
2023-05-25T09:00:57.543Z,24.35
2023-05-25T09:03:25.781Z,24.49
2023-05-25T09:05:54.092Z,24.88
2023-05-25T09:08:22.819Z,25.19
2023-05-25T09:10:50.401Z,25.48
2023-05-25T09:13:22.025Z,25.74
2023-05-25T09:15:50.284Z,25.99
2023-05-25T09:18:18.109Z,26.13
2023-05-25T09:20:47.434Z,26.09
2023-05-25T09:23:15.397Z,25.99
2023-05-25T09:25:43.099Z,25.96
2023-05-25T09:28:25.599Z,26.07
2023-05-25T09:30:54.177Z,26.14
2023-05-25T09:33:22.502Z,26.18
2023-05-25T09:35:50.701Z,26.26
2023-05-25T09:38:19.215Z,26.21
2023-05-25T09:40:47.354Z,26.32
2023-05-25T09:43:24.901Z,26.39
2023-05-25T09:46:00.598Z,26.44
2023-05-25T09:48:29.562Z,26.40
2023-05-25T09:50:59.275Z,26.40
2023-05-25T09:53:27.713Z,26.40
2023-05-25T09:55:55.287Z,26.39
2023-05-25T09:58:26.189Z,26.45
2023-05-25T10:00:55.136Z,26.54
2023-05-25T10:03:22.859Z,26.67
2023-05-25T10:05:49.658Z,26.82
2023-05-25T10:08:18.557Z,26.90
2023-05-25T10:10:47.293Z,27.03
2023-05-25T10:13:15.464Z,27.00
2023-05-25T10:15:43.781Z,27.00
2023-05-25T10:18:12.155Z,27.03
2023-05-25T10:20:39.382Z,27.04
2023-05-25T10:23:14.678Z,26.97
2023-05-25T10:25:45.037Z,27.01
2023-05-25T10:28:17.692Z,27.05
2023-05-25T10:30:46.128Z,27.05
2023-05-25T10:33:14.044Z,27.14
2023-05-25T10:35:56.279Z,27.23
2023-05-25T10:38:31.838Z,27.31
2023-05-25T10:40:59.821Z,27.38
2023-05-25T10:43:27.672Z,27.24
2023-05-25T10:45:56.216Z,27.32
2023-05-25T10:48:25.512Z,27.44
2023-05-25T10:50:53.066Z,27.52
2023-05-25T10:53:22.001Z,27.54
2023-05-25T10:56:01.394Z,27.59
2023-05-25T10:58:33.488Z,27.71
2023-05-25T11:01:23.688Z,27.79
2023-05-25T11:03:54.010Z,27.91
2023-05-25T11:06:22.282Z,28.02
2023-05-25T11:09:06.584Z,28.11
2023-05-25T11:11:42.856Z,28.13
2023-05-25T11:14:30.460Z,28.25
2023-05-25T11:17:14.828Z,28.28
2023-05-25T11:20:12.636Z,28.32
2023-05-25T11:22:40.580Z,28.37
2023-05-25T11:25:37.076Z,28.36
2023-05-25T11:28:08.906Z,28.59
2023-05-25T11:30:37.509Z,28.73
2023-05-25T11:33:07.743Z,28.79
2023-05-25T11:35:38.489Z,28.73
2023-05-25T11:38:09.951Z,28.80
2023-05-25T11:40:44.644Z,28.80
2023-05-25T11:43:12.179Z,29.01
2023-05-25T11:45:40.338Z,29.29
2023-05-25T11:48:13.979Z,29.47
2023-05-25T11:50:42.471Z,30.04
2023-05-25T11:53:11.403Z,30.77
2023-05-25T11:55:41.193Z,31.43
2023-05-25T11:58:09.428Z,31.78
2023-05-25T12:00:38.066Z,32.12
2023-05-25T12:03:05.834Z,32.51
2023-05-25T12:05:39.696Z,33.11
2023-05-25T12:08:07.404Z,33.60
2023-05-25T12:10:34.956Z,33.68
2023-05-25T12:13:02.568Z,34.21
2023-05-25T12:15:30.505Z,34.82
2023-05-25T12:17:58.686Z,35.45
2023-05-25T12:20:26.776Z,35.95
2023-05-25T12:22:54.862Z,36.29
2023-05-25T12:25:22.732Z,36.52
2023-05-25T12:27:50.678Z,37.04
2023-05-25T12:30:18.890Z,37.20
2023-05-25T12:33:02.661Z,37.49
2023-05-25T12:35:32.497Z,37.94
2023-05-25T12:38:17.932Z,37.82
2023-05-25T12:40:45.574Z,37.68
2023-05-25T12:43:14.222Z,37.84
2023-05-25T12:45:43.400Z,38.13
2023-05-25T12:48:11.930Z,38.26
2023-05-25T12:50:39.675Z,38.52
2023-05-25T12:53:07.710Z,38.71
2023-05-25T12:55:36.347Z,38.55
2023-05-25T12:58:05.944Z,38.53
2023-05-25T13:00:38.069Z,38.62
2023-05-25T13:03:09.151Z,38.83
2023-05-25T13:05:37.662Z,38.83
2023-05-25T13:08:05.308Z,39.25
2023-05-25T13:10:33.272Z,39.14
2023-05-25T13:13:01.473Z,39.20
2023-05-25T13:15:32.799Z,39.40
2023-05-25T13:18:00.667Z,39.71
2023-05-25T13:20:32.616Z,40.13
2023-05-25T13:23:00.682Z,40.26
2023-05-25T13:25:28.777Z,40.54
2023-05-25T13:27:58.300Z,40.78
2023-05-25T13:30:25.875Z,40.99
2023-05-25T13:32:59.609Z,40.89
2023-05-25T13:35:46.345Z,40.95
2023-05-25T13:38:16.607Z,41.22
2023-05-25T13:40:45.624Z,41.55
2023-05-25T13:43:14.028Z,41.98
2023-05-25T13:45:41.995Z,42.02
2023-05-25T13:48:10.113Z,42.27
2023-05-25T13:50:38.054Z,42.54
2023-05-25T13:53:06.149Z,42.71
2023-05-25T13:55:35.646Z,42.74
2023-05-25T13:58:05.780Z,42.67
2023-05-25T14:00:33.713Z,42.37
2023-05-25T14:03:00.915Z,42.28
2023-05-25T14:05:28.891Z,42.46
2023-05-25T14:07:56.808Z,42.65
2023-05-25T14:10:24.907Z,42.71
2023-05-25T14:12:53.091Z,42.49
2023-05-25T14:15:20.960Z,42.40
2023-05-25T14:17:48.908Z,42.53
2023-05-25T14:20:21.247Z,42.62
2023-05-25T14:22:49.339Z,42.64
2023-05-25T14:25:18.056Z,42.79
2023-05-25T14:27:45.930Z,42.87
2023-05-25T14:30:14.485Z,42.59
2023-05-25T14:32:42.893Z,42.70
2023-05-25T14:35:11.494Z,42.71
2023-05-25T14:37:39.375Z,42.70
2023-05-25T14:40:10.921Z,42.67
2023-05-25T14:42:38.907Z,42.79
2023-05-25T14:45:11.609Z,42.84
2023-05-25T14:47:40.816Z,43.06
2023-05-25T14:50:10.650Z,43.01
2023-05-25T14:52:38.773Z,42.96
2023-05-25T14:55:09.124Z,42.50
2023-05-25T14:57:37.073Z,42.76
2023-05-25T15:00:06.002Z,42.42
2023-05-25T15:02:34.492Z,42.08
2023-05-25T15:05:02.512Z,41.30
2023-05-25T15:07:30.127Z,41.32
2023-05-25T15:09:58.440Z,41.40
2023-05-25T15:12:26.641Z,41.55
2023-05-25T15:14:54.214Z,41.94
2023-05-25T15:17:23.491Z,41.81
2023-05-25T15:19:51.327Z,41.71
2023-05-25T15:22:19.737Z,41.67
2023-05-25T15:24:47.814Z,41.87
2023-05-25T15:27:15.907Z,41.64
2023-05-25T15:29:43.533Z,41.51
2023-05-25T15:32:13.368Z,41.49
2023-05-25T15:34:41.702Z,41.26
2023-05-25T15:37:11.209Z,41.48
2023-05-25T15:39:39.857Z,41.25
2023-05-25T15:42:07.678Z,40.77
2023-05-25T15:44:35.800Z,40.86
2023-05-25T15:47:03.434Z,41.35
2023-05-25T15:49:32.153Z,41.26
2023-05-25T15:51:59.691Z,41.26
2023-05-25T15:54:27.803Z,41.13
2023-05-25T15:56:56.086Z,40.62
2023-05-25T15:59:24.409Z,40.39
2023-05-25T16:01:52.652Z,39.98
2023-05-25T16:04:20.946Z,39.18
2023-05-25T16:06:48.799Z,38.40
2023-05-25T16:09:16.972Z,37.62
2023-05-25T16:11:45.629Z,36.68
2023-05-25T16:14:13.243Z,35.94
2023-05-25T16:16:41.353Z,35.32
2023-05-25T16:19:10.500Z,34.84
2023-05-25T16:21:40.434Z,34.47
2023-05-25T16:24:10.580Z,34.14
2023-05-25T16:26:38.126Z,33.90
2023-05-25T16:29:06.238Z,33.53
2023-05-25T16:31:34.777Z,33.21
2023-05-25T16:34:03.106Z,33.07
2023-05-25T16:36:31.543Z,33.03
2023-05-25T16:38:59.720Z,33.07
2023-05-25T16:41:27.675Z,33.14
2023-05-25T16:43:55.325Z,33.21
2023-05-25T16:46:25.173Z,33.76
2023-05-25T16:48:53.038Z,34.52
2023-05-25T16:51:20.733Z,34.69
2023-05-25T16:53:48.450Z,34.94
2023-05-25T16:56:16.623Z,34.93
2023-05-25T16:58:44.316Z,34.67
2023-05-25T17:01:12.134Z,34.36
2023-05-25T17:03:40.322Z,33.96
2023-05-25T17:06:09.478Z,33.41
2023-05-25T17:08:37.586Z,33.11
2023-05-25T17:11:05.926Z,32.88
2023-05-25T17:13:34.015Z,32.69
2023-05-25T17:16:02.061Z,32.35
2023-05-25T17:18:30.142Z,32.18
2023-05-25T17:20:58.251Z,31.72
2023-05-25T17:23:26.415Z,31.46
2023-05-25T17:25:54.855Z,31.19
2023-05-25T17:28:22.713Z,30.93
2023-05-25T17:30:50.611Z,30.73
2023-05-25T17:33:18.805Z,30.17
2023-05-25T17:35:46.914Z,29.70
2023-05-25T17:38:15.373Z,29.35
2023-05-25T17:40:43.967Z,29.07
2023-05-25T17:43:11.690Z,28.89
2023-05-25T17:45:39.643Z,28.61
2023-05-25T17:48:07.653Z,28.49
2023-05-25T17:50:35.462Z,28.38
2023-05-25T17:53:02.928Z,28.20
2023-05-25T17:55:30.883Z,28.15
2023-05-25T17:57:59.184Z,28.35
2023-05-25T18:00:27.647Z,28.49
2023-05-25T18:02:55.849Z,28.44
2023-05-25T18:05:23.906Z,28.59
2023-05-25T18:07:51.412Z,28.78
2023-05-25T18:10:22.661Z,28.67
2023-05-25T18:12:52.295Z,28.24
2023-05-25T18:15:20.529Z,27.86
2023-05-25T18:17:48.317Z,27.62
2023-05-25T18:20:17.111Z,27.38
2023-05-25T18:22:45.060Z,27.25
2023-05-25T18:25:13.214Z,27.15
2023-05-25T18:27:41.185Z,26.97
2023-05-25T18:30:12.137Z,26.79
2023-05-25T18:32:40.210Z,26.62
2023-05-25T18:35:09.534Z,26.61
2023-05-25T18:37:37.672Z,26.59
2023-05-25T18:40:07.421Z,26.61
2023-05-25T18:42:35.628Z,26.50
2023-05-25T18:45:03.649Z,26.35
2023-05-25T18:47:31.504Z,26.31
2023-05-25T18:49:59.069Z,26.34
2023-05-25T18:52:26.649Z,26.30
2023-05-25T18:54:54.524Z,26.25
2023-05-25T18:57:22.098Z,26.15
2023-05-25T18:59:50.551Z,26.07
2023-05-25T19:02:19.018Z,25.96
2023-05-25T19:04:47.529Z,25.85
2023-05-25T19:07:15.567Z,25.89
2023-05-25T19:09:43.410Z,25.82
2023-05-25T19:12:11.053Z,25.79
2023-05-25T19:14:39.184Z,25.63
2023-05-25T19:17:06.781Z,25.61
2023-05-25T19:19:34.824Z,25.57
2023-05-25T19:22:02.422Z,25.44
2023-05-25T19:24:30.238Z,25.35
2023-05-25T19:26:58.878Z,25.39
2023-05-25T19:29:26.421Z,25.39
2023-05-25T19:31:54.799Z,25.35
2023-05-25T19:34:22.514Z,25.33
2023-05-25T19:36:59.684Z,25.23
2023-05-25T19:39:32.406Z,25.16
2023-05-25T19:42:01.756Z,25.08
2023-05-25T19:44:29.579Z,25.07
2023-05-25T19:46:57.581Z,24.99
2023-05-25T19:49:25.560Z,24.90
2023-05-25T19:51:53.757Z,24.81
2023-05-25T19:54:21.224Z,24.72
2023-05-25T19:56:48.960Z,24.64
2023-05-25T19:59:17.605Z,24.55
2023-05-25T20:01:45.867Z,24.58
2023-05-25T20:04:14.111Z,24.60
2023-05-25T20:06:42.357Z,24.50
2023-05-25T20:09:12.598Z,24.46
2023-05-25T20:11:40.481Z,24.42
2023-05-25T20:14:08.504Z,24.37
2023-05-25T20:16:36.448Z,24.40
2023-05-25T20:19:07.534Z,24.38
2023-05-25T20:21:35.727Z,24.32
2023-05-25T20:24:03.520Z,24.37
2023-05-25T20:26:31.149Z,24.31
2023-05-25T20:28:59.604Z,24.30
2023-05-25T20:31:27.906Z,24.26
2023-05-25T20:33:59.798Z,24.27
2023-05-25T20:36:27.762Z,24.19
2023-05-25T20:38:55.892Z,24.14
2023-05-25T20:41:24.411Z,24.04
2023-05-25T20:43:52.468Z,24.01
2023-05-25T20:46:20.548Z,23.94
2023-05-25T20:48:48.528Z,23.91
2023-05-25T20:51:16.184Z,23.83
2023-05-25T20:53:44.192Z,23.82
2023-05-25T20:56:11.996Z,23.80
2023-05-25T20:58:40.963Z,23.76
2023-05-25T21:01:08.896Z,23.73
2023-05-25T21:03:36.786Z,23.65
2023-05-25T21:06:05.221Z,23.61
2023-05-25T21:08:32.906Z,23.56
2023-05-25T21:11:00.891Z,23.55
2023-05-25T21:13:28.932Z,23.52
2023-05-25T21:15:56.788Z,23.46
2023-05-25T21:18:24.894Z,23.42
2023-05-25T21:20:52.795Z,23.35
2023-05-25T21:23:20.754Z,23.34
2023-05-25T21:25:49.455Z,23.38
2023-05-25T21:28:36.751Z,23.41
2023-05-25T21:31:04.825Z,23.38
2023-05-25T21:33:35.867Z,23.42
2023-05-25T21:36:03.953Z,23.36
2023-05-25T21:38:31.580Z,23.36
2023-05-25T21:40:59.058Z,23.33
2023-05-25T21:43:49.166Z,23.29
2023-05-25T21:46:17.653Z,23.29
2023-05-25T21:48:48.084Z,23.27
2023-05-25T21:51:17.124Z,23.16
2023-05-25T21:53:45.459Z,23.16
2023-05-25T21:56:16.989Z,23.14
2023-05-25T22:16:49.786Z,23.07
2023-05-25T22:22:06.985Z,22.92
2023-05-25T22:27:27.300Z,22.73
